Time;durP1;ratioP1;P1;durP2;ratioP2;P2;SDS_P1;SDS_P2;PMS_P1;PMS_P2;Temp;Humidity;BMP_temperature;BMP_pressure;BME280_temperature;BME280_humidity;BME280_pressure;Samples;Min_cycle;Max_cycle;Signal;HPM_P1;HPM_P2
2021/12/27 00:02:49;;;;;;;38.67;23.50;;;-6.20;1.00;;;;;;6336626;27;20264;-55
2021/12/27 00:05:52;;;;;;;46.37;23.97;;;-6.10;1.00;;;;;;6335466;27;20243;-55
2021/12/27 00:08:56;;;;;;;39.30;23.97;;;-6.20;1.00;;;;;;6333851;28;20260;-57
2021/12/27 00:11:59;;;;;;;44.23;24.93;;;-6.10;1.00;;;;;;6334317;28;20318;-55
2021/12/27 00:15:02;;;;;;;45.60;25.17;;;-6.00;1.00;;;;;;6323789;27;20616;-56
2021/12/27 00:18:04;;;;;;;40.13;24.63;;;-6.00;1.00;;;;;;6336997;27;20372;-55
2021/12/27 00:21:07;;;;;;;45.70;25.17;;;-6.20;1.00;;;;;;6339478;27;20235;-56
2021/12/27 00:24:11;;;;;;;40.07;24.10;;;-6.20;1.00;;;;;;6332802;28;20959;-55
2021/12/27 00:27:16;;;;;;;45.57;26.03;;;-6.10;1.00;;;;;;6334636;28;20261;-57
2021/12/27 00:30:20;;;;;;;46.07;24.03;;;-6.20;1.00;;;;;;6334419;28;20739;-55
2021/12/27 00:33:23;;;;;;;45.33;26.10;;;-6.20;1.00;;;;;;6330164;27;20280;-55
2021/12/27 00:36:26;;;;;;;50.33;26.17;;;-6.20;1.00;;;;;;6336467;27;20289;-56
2021/12/27 00:39:30;;;;;;;43.23;24.87;;;-6.10;1.00;;;;;;6333381;28;20616;-55
2021/12/27 00:42:33;;;;;;;48.90;26.90;;;-5.90;1.00;;;;;;6333694;28;20242;-55
2021/12/27 00:45:36;;;;;;;54.17;27.57;;;-6.10;1.00;;;;;;6325724;28;20719;-56
2021/12/27 00:48:39;;;;;;;44.67;26.10;;;-5.90;1.00;;;;;;6339952;27;20603;-56
2021/12/27 00:51:41;;;;;;;51.40;26.47;;;-6.20;1.00;;;;;;6330800;28;20235;-54
2021/12/27 00:54:45;;;;;;;44.57;25.40;;;-6.20;1.00;;;;;;6329791;28;20251;-55
2021/12/27 00:57:49;;;;;;;51.60;26.23;;;-5.90;1.00;;;;;;6315082;28;20347;-53
2021/12/27 01:00:52;;;;;;;44.13;24.57;;;-6.20;1.00;;;;;;6333248;27;20236;-55
2021/12/27 01:03:55;;;;;;;47.73;27.17;;;-6.00;1.00;;;;;;6335205;27;20319;-55
2021/12/27 01:06:58;;;;;;;45.40;26.70;;;-5.80;1.00;;;;;;6332693;28;20372;-55
2021/12/27 01:10:17;;;;;;;48.57;26.67;;;-5.90;1.00;;;;;;6332250;28;20727;-56
2021/12/27 01:13:24;;;;;;;48.50;27.17;;;-6.00;1.00;;;;;;6327963;28;20547;-57
2021/12/27 01:16:26;;;;;;;52.60;27.40;;;-6.20;1.00;;;;;;6328797;28;20261;-57
2021/12/27 01:19:29;;;;;;;50.33;27.83;;;-6.10;1.00;;;;;;6342245;27;20273;-55
2021/12/27 01:22:32;;;;;;;53.17;27.83;;;-5.90;1.00;;;;;;6325564;28;20342;-56
2021/12/27 01:25:37;;;;;;;52.17;27.03;;;-5.90;1.00;;;;;;6330667;28;20246;-56
2021/12/27 01:28:41;;;;;;;55.27;28.13;;;-6.10;1.00;;;;;;6334850;28;20232;-56
2021/12/27 01:31:44;;;;;;;51.47;29.37;;;-6.00;1.00;;;;;;6326015;28;20259;-55
2021/12/27 01:34:47;;;;;;;48.47;28.53;;;-6.00;1.00;;;;;;6348246;27;20238;-56
2021/12/27 01:37:51;;;;;;;53.97;28.87;;;-5.90;1.00;;;;;;6336514;28;20240;-57
2021/12/27 01:40:58;;;;;;;46.60;29.00;;;-6.00;1.00;;;;;;6335317;28;20617;-55
2021/12/27 01:44:01;;;;;;;45.63;28.17;;;-5.80;1.00;;;;;;6336004;28;20791;-55
2021/12/27 01:47:06;;;;;;;59.13;30.60;;;-6.00;1.00;;;;;;6335238;27;20230;-57
2021/12/27 01:50:09;;;;;;;56.57;30.13;;;-5.80;1.00;;;;;;6347601;27;20290;-55
2021/12/27 01:53:14;;;;;;;56.97;30.13;;;-6.00;1.00;;;;;;6335201;27;20224;-56
2021/12/27 01:56:21;;;;;;;55.23;30.07;;;-5.90;1.00;;;;;;6328052;28;20259;-56
2021/12/27 01:59:24;;;;;;;60.37;29.07;;;-5.80;1.00;;;;;;6336956;27;20723;-57
2021/12/27 02:02:27;;;;;;;52.43;28.13;;;-5.90;1.00;;;;;;6348495;27;20551;-54
2021/12/27 02:05:29;;;;;;;55.40;29.87;;;-5.90;1.00;;;;;;6339175;27;20721;-56
2021/12/27 02:08:32;;;;;;;56.67;28.87;;;-5.80;1.00;;;;;;6337644;27;20350;-55
2021/12/27 02:11:37;;;;;;;54.97;29.53;;;-5.80;1.00;;;;;;6334732;28;20236;-56
2021/12/27 02:14:39;;;;;;;57.17;30.43;;;-5.80;1.00;;;;;;6337135;28;20281;-57
2021/12/27 02:17:44;;;;;;;55.87;30.33;;;-5.80;1.00;;;;;;6340047;27;20270;-56
2021/12/27 02:20:48;;;;;;;51.10;28.40;;;-5.90;1.00;;;;;;6335465;27;20385;-57
2021/12/27 02:23:53;;;;;;;49.53;29.43;;;-6.00;1.00;;;;;;6336817;27;20227;-56
2021/12/27 02:26:56;;;;;;;52.90;28.47;;;-5.80;1.00;;;;;;6337318;27;20682;-56
2021/12/27 02:29:59;;;;;;;49.13;27.93;;;-5.90;1.00;;;;;;6335430;27;20239;-58
2021/12/27 02:33:05;;;;;;;59.80;30.30;;;-5.90;1.00;;;;;;6337659;27;20259;-55
2021/12/27 02:36:11;;;;;;;55.23;29.13;;;-5.90;1.00;;;;;;6342235;27;20392;-56
2021/12/27 02:39:13;;;;;;;58.27;29.63;;;-5.80;1.00;;;;;;6329518;28;20298;-56
2021/12/27 02:42:17;;;;;;;58.30;30.03;;;-5.50;1.00;;;;;;6336420;27;20236;-56
2021/12/27 02:45:20;;;;;;;57.93;30.23;;;-5.80;1.00;;;;;;6335901;27;20254;-56
2021/12/27 02:48:26;;;;;;;59.70;31.17;;;-5.30;1.00;;;;;;6336471;27;20758;-55
2021/12/27 02:51:30;;;;;;;55.43;30.93;;;-5.40;1.00;;;;;;6340156;27;20325;-56
2021/12/27 02:54:33;;;;;;;52.37;29.67;;;-5.80;1.00;;;;;;6332567;27;20304;-56
2021/12/27 02:57:36;;;;;;;51.80;29.10;;;-5.60;1.00;;;;;;6329210;28;20264;-56
2021/12/27 03:00:42;;;;;;;62.90;31.10;;;-5.40;1.00;;;;;;6336272;27;20238;-56
2021/12/27 03:03:45;;;;;;;59.90;30.93;;;-5.40;1.00;;;;;;6337865;27;20224;-52
2021/12/27 03:06:49;;;;;;;61.87;31.47;;;-5.40;1.00;;;;;;6332891;27;20328;-56
2021/12/27 03:09:58;;;;;;;57.87;29.90;;;-5.40;1.00;;;;;;6330272;27;20323;-55
2021/12/27 03:13:03;;;;;;;49.63;28.47;;;-5.50;1.00;;;;;;6341697;27;20853;-57
2021/12/27 03:16:09;;;;;;;53.73;30.30;;;-5.20;1.00;;;;;;6329698;28;20312;-55
2021/12/27 03:19:12;;;;;;;54.40;30.43;;;-5.30;1.00;;;;;;6342192;27;20230;-56
2021/12/27 03:22:16;;;;;;;58.73;29.63;;;-5.40;1.00;;;;;;6334585;27;20609;-55
2021/12/27 03:25:21;;;;;;;55.10;29.77;;;-5.40;1.00;;;;;;6333536;28;20236;-54
2021/12/27 03:28:24;;;;;;;60.37;30.73;;;-5.20;1.00;;;;;;6335747;27;20857;-55
2021/12/27 03:31:27;;;;;;;60.37;29.67;;;-5.10;1.00;;;;;;6331059;27;20282;-54
2021/12/27 03:34:31;;;;;;;49.67;29.03;;;-5.10;1.00;;;;;;6309321;28;21015;-56
2021/12/27 03:37:36;;;;;;;54.37;29.70;;;-5.30;1.00;;;;;;6309937;28;20239;-57
2021/12/27 03:40:40;;;;;;;52.50;29.50;;;-5.20;1.00;;;;;;6308670;28;20741;-56
2021/12/27 03:43:43;;;;;;;52.03;29.73;;;-5.20;1.00;;;;;;6332667;27;20292;-56
2021/12/27 03:46:46;;;;;;;57.77;29.37;;;-5.20;1.00;;;;;;6330481;28;20243;-56
2021/12/27 03:49:49;;;;;;;55.33;28.87;;;-5.20;1.00;;;;;;6338831;27;20329;-56
2021/12/27 03:52:55;;;;;;;53.00;27.57;;;-5.40;1.00;;;;;;6333659;28;20314;-55
2021/12/27 03:55:58;;;;;;;54.00;28.33;;;-5.50;1.00;;;;;;6330157;28;20367;-55
2021/12/27 03:59:20;;;;;;;49.57;29.13;;;-5.10;1.00;;;;;;6335215;28;20280;-55
2021/12/27 04:02:23;;;;;;;55.10;29.20;;;-5.10;1.00;;;;;;6340883;27;20235;-55
2021/12/27 04:05:26;;;;;;;55.53;29.20;;;-5.10;1.00;;;;;;6335685;27;20288;-56
2021/12/27 04:08:30;;;;;;;59.47;29.33;;;-5.00;1.00;;;;;;6334710;28;20356;-57
2021/12/27 04:11:33;;;;;;;54.83;29.30;;;-5.30;1.00;;;;;;6333879;28;20251;-56
2021/12/27 04:14:35;;;;;;;55.83;29.30;;;-5.50;1.00;;;;;;6329912;27;20240;-56
2021/12/27 04:17:39;;;;;;;56.20;30.27;;;-5.00;1.00;;;;;;6335466;27;20888;-56
2021/12/27 04:20:42;;;;;;;56.07;28.30;;;-5.20;1.00;;;;;;6328350;28;20247;-57
2021/12/27 04:23:46;;;;;;;45.07;27.60;;;-5.40;1.00;;;;;;6333429;27;20312;-56
2021/12/27 04:26:48;;;;;;;52.27;28.60;;;-5.30;1.00;;;;;;6331803;28;20313;-57
2021/12/27 04:29:51;;;;;;;52.83;29.27;;;-5.20;1.00;;;;;;6331387;27;20246;-55
2021/12/27 04:32:54;;;;;;;53.97;28.83;;;-4.90;1.00;;;;;;6294970;28;20240;-56
2021/12/27 04:35:57;;;;;;;47.97;28.03;;;-5.00;1.00;;;;;;6302925;28;20229;-56
2021/12/27 04:39:01;;;;;;;54.03;28.60;;;-5.10;1.00;;;;;;6307034;28;20228;-55
2021/12/27 04:42:05;;;;;;;52.47;29.87;;;-5.00;1.00;;;;;;6305624;28;20248;-55
2021/12/27 04:45:08;;;;;;;52.97;28.17;;;-5.00;1.00;;;;;;6318757;27;20298;-56
2021/12/27 04:48:12;;;;;;;55.97;28.50;;;-4.80;1.00;;;;;;6333364;27;20231;-56
2021/12/27 04:51:15;;;;;;;57.07;29.43;;;-4.90;1.00;;;;;;6329568;27;20804;-56
2021/12/27 04:54:19;;;;;;;60.30;30.00;;;-4.90;1.00;;;;;;6330947;28;20369;-57
2021/12/27 04:57:21;;;;;;;53.63;27.83;;;-4.90;1.00;;;;;;6328278;27;20266;-55
2021/12/27 05:00:24;;;;;;;61.03;29.40;;;-5.00;1.00;;;;;;6338960;27;20231;-57
2021/12/27 05:03:27;;;;;;;52.53;29.03;;;-4.90;1.00;;;;;;6333942;27;20227;-55
2021/12/27 05:06:30;;;;;;;55.53;29.30;;;-4.80;1.00;;;;;;6333735;27;21558;-57
2021/12/27 05:09:34;;;;;;;59.90;29.87;;;-4.80;1.00;;;;;;6335411;27;20269;-57
2021/12/27 05:12:36;;;;;;;49.83;27.80;;;-4.90;1.00;;;;;;6333930;27;20961;-55
2021/12/27 05:15:39;;;;;;;57.63;29.00;;;-4.70;1.00;;;;;;6331869;27;20322;-55
2021/12/27 05:18:42;;;;;;;55.13;29.63;;;-4.70;1.00;;;;;;6333291;27;20239;-57
2021/12/27 05:21:45;;;;;;;53.50;28.67;;;-4.90;1.00;;;;;;6328900;28;20288;-58
2021/12/27 05:24:49;;;;;;;58.07;29.07;;;-4.80;1.00;;;;;;6325022;28;20363;-57
2021/12/27 05:27:51;;;;;;;53.70;29.30;;;-4.60;1.00;;;;;;6338605;27;20320;-56
2021/12/27 05:30:54;;;;;;;56.90;29.93;;;-4.70;1.00;;;;;;6328316;27;20244;-54
2021/12/27 05:33:57;;;;;;;55.70;30.27;;;-4.80;1.00;;;;;;6331326;28;20228;-55
2021/12/27 05:37:00;;;;;;;49.90;28.13;;;-4.60;1.00;;;;;;6329381;27;20239;-55
2021/12/27 05:40:06;;;;;;;53.23;29.73;;;-4.30;1.00;;;;;;6323574;28;20310;-53
2021/12/27 05:43:09;;;;;;;49.30;27.53;;;-4.60;1.00;;;;;;6329913;27;20310;-55
2021/12/27 05:46:12;;;;;;;55.67;29.63;;;-4.40;1.00;;;;;;6333087;27;20254;-58
2021/12/27 05:49:15;;;;;;;55.33;29.00;;;-4.30;1.00;;;;;;6332921;28;20248;-56
2021/12/27 05:52:18;;;;;;;51.70;29.63;;;-4.40;1.00;;;;;;6333625;27;20228;-57
2021/12/27 05:55:23;;;;;;;50.67;28.90;;;-4.40;1.00;;;;;;6326012;27;20456;-57
2021/12/27 05:58:26;;;;;;;48.40;28.43;;;-4.50;1.00;;;;;;6339430;27;20322;-56
2021/12/27 06:01:29;;;;;;;54.77;28.93;;;-4.10;1.00;;;;;;6334776;27;20422;-55
2021/12/27 06:04:32;;;;;;;56.70;28.90;;;-4.40;1.00;;;;;;6337218;27;20405;-56
2021/12/27 06:07:35;;;;;;;52.90;29.37;;;-4.30;1.00;;;;;;6333031;27;20381;-57
2021/12/27 06:10:39;;;;;;;50.00;28.37;;;-4.20;1.00;;;;;;6334652;27;20244;-57
2021/12/27 06:13:43;;;;;;;48.87;28.73;;;-4.40;1.00;;;;;;6336320;27;20285;-56
2021/12/27 06:16:46;;;;;;;51.47;29.63;;;-4.10;1.00;;;;;;6337452;27;20312;-56
2021/12/27 06:19:49;;;;;;;53.83;28.70;;;-4.30;1.00;;;;;;6341606;27;20232;-57
2021/12/27 06:22:54;;;;;;;54.70;28.73;;;-4.10;1.00;;;;;;6329121;27;20277;-57
2021/12/27 06:25:59;;;;;;;59.00;30.50;;;-4.10;1.00;;;;;;6338687;27;20465;-56
2021/12/27 06:29:02;;;;;;;57.70;30.07;;;-4.30;1.00;;;;;;6336167;27;20231;-56
2021/12/27 06:32:05;;;;;;;48.83;28.60;;;-3.90;1.00;;;;;;6336786;27;20241;-56
2021/12/27 06:35:10;;;;;;;56.73;29.47;;;-3.90;1.00;;;;;;6337833;27;20284;-55
2021/12/27 06:38:13;;;;;;;61.03;29.80;;;-4.00;1.00;;;;;;6344746;27;20240;-55
2021/12/27 06:41:17;;;;;;;51.20;29.30;;;-4.30;1.00;;;;;;6339407;27;20698;-55
2021/12/27 06:44:20;;;;;;;54.60;30.07;;;-3.90;1.00;;;;;;6340285;27;20623;-57
2021/12/27 06:47:24;;;;;;;58.73;30.60;;;-4.00;1.00;;;;;;6333617;27;20725;-56
2021/12/27 06:50:27;;;;;;;55.27;28.73;;;-3.80;1.00;;;;;;6329119;27;20862;-56
2021/12/27 06:53:31;;;;;;;55.00;29.83;;;-4.10;1.00;;;;;;6338487;27;20305;-57
2021/12/27 06:56:35;;;;;;;59.53;29.73;;;-3.90;1.00;;;;;;6345822;27;20232;-56
2021/12/27 06:59:38;;;;;;;49.67;29.87;;;-3.70;1.00;;;;;;6335705;27;20223;-56
2021/12/27 07:02:41;;;;;;;52.63;30.03;;;-3.80;1.00;;;;;;6328017;27;20580;-57
2021/12/27 07:05:44;;;;;;;48.00;28.20;;;-4.00;1.00;;;;;;6329249;27;20244;-58
2021/12/27 07:08:47;;;;;;;62.73;30.97;;;-3.70;1.00;;;;;;6331338;27;20318;-56
2021/12/27 07:11:52;;;;;;;57.23;29.90;;;-3.70;1.00;;;;;;6336457;27;20235;-57
2021/12/27 07:14:54;;;;;;;59.53;31.70;;;-3.70;1.00;;;;;;6342852;27;20389;-56
2021/12/27 07:17:57;;;;;;;58.53;30.73;;;-3.60;1.00;;;;;;6338654;27;20246;-55
2021/12/27 07:21:00;;;;;;;48.90;28.87;;;-3.60;1.00;;;;;;6335444;27;20235;-56
2021/12/27 07:24:04;;;;;;;55.50;29.43;;;-3.60;1.00;;;;;;6346849;27;20227;-57
2021/12/27 07:27:08;;;;;;;58.60;30.70;;;-3.60;1.00;;;;;;6334520;27;20304;-57
2021/12/27 07:30:13;;;;;;;55.43;29.50;;;-3.40;1.00;;;;;;6324137;27;20235;-57
2021/12/27 07:33:15;;;;;;;58.17;31.83;;;-3.40;1.00;;;;;;6343745;27;20605;-57
2021/12/27 07:36:18;;;;;;;56.13;29.67;;;-3.60;1.00;;;;;;6326888;27;20232;-57
2021/12/27 07:39:23;;;;;;;52.40;29.00;;;-3.70;1.00;;;;;;6329006;27;20236;-56
2021/12/27 07:42:27;;;;;;;56.30;29.83;;;-3.70;1.00;;;;;;6334012;27;20243;-55
2021/12/27 07:45:30;;;;;;;54.80;30.10;;;-3.60;1.00;;;;;;6335223;27;20749;-55
2021/12/27 07:48:33;;;;;;;56.07;29.93;;;-3.60;1.00;;;;;;6329117;27;20233;-57
2021/12/27 07:51:36;;;;;;;53.00;29.90;;;-3.70;1.00;;;;;;6337381;27;20822;-56
2021/12/27 07:54:39;;;;;;;57.17;30.83;;;-3.30;1.00;;;;;;6334307;27;20262;-56
2021/12/27 07:57:43;;;;;;;55.03;30.63;;;-3.40;1.00;;;;;;6324838;27;20846;-56
2021/12/27 08:00:50;;;;;;;58.60;32.10;;;-3.40;1.00;;;;;;6339440;27;20610;-55
2021/12/27 08:03:53;;;;;;;58.13;32.13;;;-3.40;1.00;;;;;;6334306;28;20634;-56
2021/12/27 08:07:00;;;;;;;56.23;30.60;;;-3.20;1.00;;;;;;6329483;27;20240;-57
2021/12/27 08:10:04;;;;;;;61.00;31.23;;;-3.40;1.00;;;;;;6318783;28;20714;-58
2021/12/27 08:13:08;;;;;;;61.20;32.00;;;-3.40;1.00;;;;;;6333396;27;20262;-57
2021/12/27 08:16:11;;;;;;;58.40;30.90;;;-3.40;1.00;;;;;;6331867;27;20240;-57
2021/12/27 08:19:16;;;;;;;59.70;32.53;;;-3.40;1.00;;;;;;6332094;27;20235;-58
2021/12/27 08:22:20;;;;;;;52.03;29.87;;;-3.30;1.00;;;;;;6326173;27;20236;-56
2021/12/27 08:25:24;;;;;;;57.33;30.93;;;-3.40;1.00;;;;;;6320806;28;20229;-56
2021/12/27 08:28:28;;;;;;;58.87;31.00;;;-3.30;1.00;;;;;;6327807;27;20259;-57
2021/12/27 08:31:31;;;;;;;56.37;29.83;;;-3.10;1.00;;;;;;6314568;27;20308;-58
2021/12/27 08:34:34;;;;;;;54.73;31.00;;;-3.10;1.00;;;;;;6321789;27;20236;-55
2021/12/27 08:37:38;;;;;;;53.30;29.33;;;-3.10;1.00;;;;;;6324433;28;20240;-55
2021/12/27 08:40:40;;;;;;;52.80;28.90;;;-3.20;1.00;;;;;;6328750;27;20385;-55
2021/12/27 08:43:45;;;;;;;55.17;29.67;;;-3.10;1.00;;;;;;6334623;27;20224;-57
2021/12/27 08:46:48;;;;;;;55.07;29.93;;;-3.10;1.00;;;;;;6332132;27;20744;-59
2021/12/27 08:49:50;;;;;;;58.40;30.13;;;-2.80;1.00;;;;;;6332479;27;20254;-57
2021/12/27 08:53:07;;;;;;;51.27;30.17;;;-3.10;1.00;;;;;;6327144;27;20910;-58
2021/12/27 08:56:10;;;;;;;51.90;28.63;;;-2.70;1.00;;;;;;6323641;28;20318;-56
2021/12/27 08:59:14;;;;;;;53.23;28.80;;;-2.80;1.00;;;;;;6334113;28;20669;-55
2021/12/27 09:02:17;;;;;;;56.50;31.10;;;-2.90;1.00;;;;;;6339849;27;20322;-58
2021/12/27 09:05:20;;;;;;;51.10;28.27;;;-2.90;1.00;;;;;;6332116;28;20243;-56
2021/12/27 09:08:22;;;;;;;55.17;29.63;;;-2.70;1.00;;;;;;6335506;27;20377;-57
2021/12/27 09:11:25;;;;;;;53.00;30.43;;;-2.80;1.00;;;;;;6333337;27;20238;-56
2021/12/27 09:14:29;;;;;;;49.93;28.77;;;-2.60;1.00;;;;;;6331737;27;20336;-57
2021/12/27 09:17:33;;;;;;;54.17;29.20;;;-2.40;1.00;;;;;;6331204;27;20235;-57
2021/12/27 09:20:35;;;;;;;53.30;29.70;;;-2.60;1.00;;;;;;6328264;27;20839;-57
2021/12/27 09:23:38;;;;;;;54.07;29.63;;;-2.50;1.00;;;;;;6331965;28;20261;-55
2021/12/27 09:26:41;;;;;;;52.37;29.73;;;-2.40;1.00;;;;;;6330509;27;20389;-57
2021/12/27 09:29:45;;;;;;;49.10;30.07;;;-2.50;1.00;;;;;;6325179;27;20451;-56
2021/12/27 09:32:50;;;;;;;49.63;28.77;;;-2.10;1.00;;;;;;6337200;27;20309;-57
2021/12/27 09:35:53;;;;;;;50.63;28.23;;;-2.10;1.00;;;;;;6324706;27;20744;-57
2021/12/27 09:38:56;;;;;;;51.33;28.10;;;-2.20;1.00;;;;;;6323640;27;20236;-56
2021/12/27 09:41:59;;;;;;;57.07;29.20;;;-2.00;1.00;;;;;;6318087;28;20389;-56
2021/12/27 09:45:05;;;;;;;56.80;29.87;;;-2.20;1.00;;;;;;6328291;28;20234;-56
2021/12/27 09:48:08;;;;;;;50.90;27.53;;;-2.10;1.00;;;;;;6331929;27;20235;-56
2021/12/27 09:51:12;;;;;;;54.43;29.57;;;-2.30;1.00;;;;;;6331916;27;20229;-56
2021/12/27 09:54:14;;;;;;;50.80;28.27;;;-2.10;1.00;;;;;;6333039;27;20281;-58
2021/12/27 09:57:18;;;;;;;48.90;28.17;;;-2.00;1.00;;;;;;6335005;27;20240;-57
2021/12/27 10:00:22;;;;;;;54.47;28.97;;;-2.20;1.00;;;;;;6339831;27;20914;-56
2021/12/27 10:03:25;;;;;;;55.60;29.77;;;-2.00;1.00;;;;;;6339346;27;20303;-57
2021/12/27 10:06:29;;;;;;;49.80;30.53;;;-2.20;1.00;;;;;;6342866;27;20793;-58
2021/12/27 10:09:33;;;;;;;44.77;28.07;;;-2.10;1.00;;;;;;6337983;27;20231;-56
2021/12/27 10:12:36;;;;;;;51.63;30.13;;;-1.80;1.00;;;;;;6342078;27;20236;-58
2021/12/27 10:15:42;;;;;;;54.77;29.53;;;-1.60;1.00;;;;;;6337257;27;20501;-56
2021/12/27 10:18:45;;;;;;;58.60;29.70;;;-1.60;1.00;;;;;;6341448;27;20235;-57
2021/12/27 10:21:50;;;;;;;44.73;28.17;;;-1.70;1.00;;;;;;6334607;27;20307;-55
2021/12/27 10:24:54;;;;;;;52.40;29.27;;;-1.80;1.00;;;;;;6330111;27;20246;-59
2021/12/27 10:27:59;;;;;;;54.40;30.27;;;-1.90;1.00;;;;;;6329210;27;20240;-56
2021/12/27 10:31:04;;;;;;;49.43;27.77;;;-1.60;1.00;;;;;;6326016;27;20605;-58
2021/12/27 10:34:07;;;;;;;53.93;29.53;;;-1.50;1.00;;;;;;6334406;27;20452;-58
2021/12/27 10:37:17;;;;;;;49.27;28.90;;;-1.50;1.00;;;;;;6330307;27;20272;-56
2021/12/27 10:40:22;;;;;;;50.43;28.43;;;-1.40;1.00;;;;;;6335239;27;20260;-57
2021/12/27 10:43:39;;;;;;;46.73;27.43;;;-1.10;1.00;;;;;;6337820;27;20261;-56
2021/12/27 10:46:43;;;;;;;45.77;27.33;;;-0.90;1.00;;;;;;6327551;27;20240;-57
2021/12/27 10:49:46;;;;;;;47.30;27.57;;;-0.50;1.00;;;;;;6335303;27;20232;-58
2021/12/27 10:52:53;;;;;;;47.93;28.17;;;-0.60;1.00;;;;;;6336011;27;20308;-58
2021/12/27 10:55:57;;;;;;;51.57;27.97;;;-0.80;1.00;;;;;;6322855;28;20248;-56
2021/12/27 10:59:01;;;;;;;49.03;27.60;;;-0.80;1.00;;;;;;6338280;27;20258;-58
2021/12/27 11:02:13;;;;;;;50.73;28.40;;;-0.80;1.00;;;;;;6332951;27;20667;-57
2021/12/27 11:05:19;;;;;;;45.90;27.43;;;-0.90;1.00;;;;;;6336180;27;20310;-57
2021/12/27 11:08:22;;;;;;;51.23;28.20;;;-0.90;1.00;;;;;;6331312;27;20236;-57
2021/12/27 11:11:26;;;;;;;52.00;28.90;;;-1.00;1.00;;;;;;6329752;27;20228;-58
2021/12/27 11:14:29;;;;;;;49.63;29.37;;;-0.90;1.00;;;;;;6331082;27;20250;-58
2021/12/27 11:17:34;;;;;;;45.33;28.27;;;-0.80;1.00;;;;;;6337506;27;20243;-58
2021/12/27 11:20:37;;;;;;;48.37;27.60;;;-1.00;1.00;;;;;;6336439;27;20326;-56
2021/12/27 11:23:41;;;;;;;52.00;28.63;;;-0.60;1.00;;;;;;6326240;27;20323;-58
2021/12/27 11:27:11;;;;;;;43.63;27.93;;;-0.90;1.00;;;;;;6334815;27;22350;-58
2021/12/27 11:30:16;;;;;;;50.67;28.30;;;-0.80;1.00;;;;;;6338207;27;20301;-58
2021/12/27 11:33:22;;;;;;;47.53;27.57;;;-0.70;1.00;;;;;;6325970;27;20624;-60
2021/12/27 11:36:26;;;;;;;46.40;26.87;;;-0.70;1.00;;;;;;6333959;27;20395;-58
2021/12/27 11:39:32;;;;;;;46.30;28.07;;;-0.40;1.00;;;;;;6327376;27;20220;-58
2021/12/27 11:42:54;;;;;;;47.00;26.17;;;-0.40;1.00;;;;;;6326134;27;20342;-58
2021/12/27 11:45:57;;;;;;;49.43;27.70;;;-0.20;1.00;;;;;;6334342;27;20249;-58
2021/12/27 11:49:05;;;;;;;48.53;27.43;;;-0.10;1.00;;;;;;6330096;27;20604;-58
2021/12/27 11:52:20;;;;;;;49.87;28.10;;;-0.30;1.00;;;;;;6330822;27;20306;-58
2021/12/27 11:55:38;;;;;;;50.83;27.93;;;-0.20;1.00;;;;;;6324792;27;20288;-57
2021/12/27 11:58:44;;;;;;;45.60;27.47;;;-0.40;1.00;;;;;;6330572;27;20240;-57
2021/12/27 12:01:48;;;;;;;49.53;28.33;;;0.10;1.00;;;;;;6334706;27;20238;-56
2021/12/27 12:04:55;;;;;;;44.40;26.97;;;0.00;1.00;;;;;;6335047;27;20286;-57
2021/12/27 12:07:57;;;;;;;45.97;27.73;;;0.10;1.00;;;;;;6336954;27;20292;-56
2021/12/27 12:11:02;;;;;;;49.60;30.60;;;0.10;1.00;;;;;;6337996;27;20237;-58
2021/12/27 12:14:24;;;;;;;44.63;27.27;;;0.20;1.00;;;;;;6332299;27;20758;-58
2021/12/27 12:17:36;;;;;;;46.87;27.07;;;0.00;1.00;;;;;;6331318;27;20228;-57
2021/12/27 12:20:40;;;;;;;43.90;26.37;;;-0.10;1.00;;;;;;6335459;27;20239;-61
2021/12/27 12:23:55;;;;;;;45.67;27.37;;;0.10;1.00;;;;;;6332275;27;20261;-57
2021/12/27 12:27:00;;;;;;;47.47;26.30;;;0.10;1.00;;;;;;6336100;27;20447;-57
2021/12/27 12:30:05;;;;;;;51.40;28.90;;;0.20;1.00;;;;;;6335359;27;20242;-57
2021/12/27 12:33:09;;;;;;;46.97;27.10;;;0.00;1.00;;;;;;6329834;28;20254;-58
2021/12/27 12:36:13;;;;;;;44.77;27.50;;;0.00;1.00;;;;;;6336131;27;20310;-59
2021/12/27 12:39:17;;;;;;;45.70;27.00;;;0.20;1.00;;;;;;6343201;27;20451;-58
2021/12/27 12:42:23;;;;;;;50.43;27.63;;;0.30;1.00;;;;;;6332561;27;20716;-57
2021/12/27 12:45:30;;;;;;;47.20;27.43;;;0.30;1.00;;;;;;6329247;27;20287;-57
2021/12/27 12:48:33;;;;;;;51.43;28.30;;;0.30;1.00;;;;;;6326891;27;20373;-58
2021/12/27 12:51:40;;;;;;;43.43;26.60;;;0.30;1.00;;;;;;6331712;27;20238;-58
2021/12/27 12:54:45;;;;;;;47.47;27.07;;;0.20;1.00;;;;;;6329225;27;20708;-58
2021/12/27 12:57:50;;;;;;;43.93;26.43;;;0.40;1.00;;;;;;6323519;27;20229;-58
2021/12/27 13:01:02;;;;;;;42.70;25.40;;;0.40;1.00;;;;;;6334375;27;20368;-57
2021/12/27 13:04:05;;;;;;;41.20;25.13;;;0.30;1.00;;;;;;6330646;27;20482;-57
2021/12/27 13:07:10;;;;;;;42.20;26.03;;;0.40;1.00;;;;;;6331780;27;20235;-58
2021/12/27 13:10:19;;;;;;;44.43;26.33;;;0.30;1.00;;;;;;6334666;28;20311;-56
2021/12/27 13:13:22;;;;;;;43.53;26.67;;;0.40;1.00;;;;;;6326373;28;20251;-55
2021/12/27 13:16:28;;;;;;;48.33;26.97;;;0.40;1.00;;;;;;6338914;27;21158;-58
2021/12/27 13:19:31;;;;;;;47.57;26.33;;;0.30;1.00;;;;;;6334786;27;20841;-56
2021/12/27 13:22:48;;;;;;;45.40;26.37;;;0.50;1.00;;;;;;6334775;27;20465;-57
2021/12/27 13:25:52;;;;;;;41.07;24.83;;;0.40;1.00;;;;;;6332017;27;20377;-57
2021/12/27 13:28:54;;;;;;;49.90;27.23;;;0.40;1.00;;;;;;6330579;27;20236;-57
2021/12/27 13:31:57;;;;;;;41.93;25.97;;;0.50;1.00;;;;;;6333148;27;20268;-57
2021/12/27 13:35:00;;;;;;;48.57;26.30;;;0.30;1.00;;;;;;6332536;27;20874;-61
2021/12/27 13:38:04;;;;;;;51.47;28.20;;;0.30;1.00;;;;;;6332996;28;20235;-58
2021/12/27 13:41:10;;;;;;;44.00;25.23;;;0.40;1.00;;;;;;6337549;27;20371;-57
2021/12/27 13:44:14;;;;;;;51.97;27.37;;;0.50;1.00;;;;;;6325380;28;20826;-51
2021/12/27 13:47:17;;;;;;;45.37;28.07;;;0.40;1.00;;;;;;6333684;27;20242;-57
2021/12/27 13:50:26;;;;;;;46.37;26.00;;;0.30;1.00;;;;;;6336085;27;20390;-56
2021/12/27 13:53:31;;;;;;;44.60;26.67;;;0.20;1.00;;;;;;6328447;28;20273;-57
2021/12/27 13:56:35;;;;;;;45.13;27.23;;;0.30;1.00;;;;;;6332784;28;20512;-57
2021/12/27 13:59:39;;;;;;;43.27;26.47;;;0.30;1.00;;;;;;6332996;28;20739;-59
2021/12/27 14:02:44;;;;;;;42.97;26.63;;;0.20;1.00;;;;;;6332469;27;20318;-58
2021/12/27 14:05:53;;;;;;;44.07;27.53;;;0.40;1.00;;;;;;6333111;28;20715;-57
2021/12/27 14:09:00;;;;;;;43.13;26.50;;;0.50;1.00;;;;;;6333063;27;20305;-56
2021/12/27 14:12:05;;;;;;;40.70;24.97;;;0.40;1.00;;;;;;6340574;27;20306;-54
2021/12/27 14:15:09;;;;;;;49.30;26.90;;;0.40;1.00;;;;;;6325249;27;20231;-56
2021/12/27 14:18:14;;;;;;;50.43;28.10;;;0.30;1.00;;;;;;6328002;27;20467;-56
2021/12/27 14:21:17;;;;;;;43.37;26.97;;;0.30;1.00;;;;;;6334488;27;20297;-58
2021/12/27 14:24:30;;;;;;;48.63;26.83;;;0.30;1.00;;;;;;6331533;28;20316;-57
2021/12/27 14:27:35;;;;;;;45.57;26.77;;;0.10;1.00;;;;;;6304107;28;20709;-58
2021/12/27 14:30:39;;;;;;;50.20;27.23;;;0.30;1.00;;;;;;6334134;27;20331;-56
2021/12/27 14:33:43;;;;;;;48.83;28.13;;;0.30;1.00;;;;;;6323420;27;20888;-57
2021/12/27 14:36:47;;;;;;;43.17;26.87;;;0.10;1.00;;;;;;6334107;27;20415;-61
2021/12/27 14:39:52;;;;;;;47.47;26.77;;;0.20;1.00;;;;;;6331640;27;20577;-56
2021/12/27 14:42:57;;;;;;;45.13;27.57;;;0.00;1.00;;;;;;6327456;27;20707;-56
2021/12/27 14:46:02;;;;;;;48.30;28.47;;;0.10;1.00;;;;;;6336521;27;20554;-58
2021/12/27 14:49:05;;;;;;;51.37;27.20;;;-0.10;1.00;;;;;;6345561;27;20775;-56
2021/12/27 14:52:09;;;;;;;49.97;26.83;;;0.10;1.00;;;;;;6340700;27;20725;-58
2021/12/27 14:55:33;;;;;;;47.63;28.33;;;0.00;1.00;;;;;;6329733;28;20232;-58
2021/12/27 14:58:36;;;;;;;50.43;27.67;;;0.00;1.00;;;;;;6340590;27;20238;-56
2021/12/27 15:01:38;;;;;;;44.27;28.27;;;0.10;1.00;;;;;;6337808;27;20382;-57
2021/12/27 15:04:41;;;;;;;47.23;27.57;;;-0.30;1.00;;;;;;6342074;27;20317;-56
2021/12/27 15:07:44;;;;;;;48.10;27.57;;;-0.30;1.00;;;;;;6336547;27;20377;-56
2021/12/27 15:10:48;;;;;;;50.40;29.23;;;-0.10;1.00;;;;;;6340778;27;20757;-57
2021/12/27 15:13:51;;;;;;;50.53;28.47;;;-0.30;1.00;;;;;;6340029;27;20300;-57
2021/12/27 15:16:53;;;;;;;52.93;29.40;;;-0.20;1.00;;;;;;6328188;27;20237;-56
2021/12/27 15:19:57;;;;;;;50.07;27.50;;;-0.20;1.00;;;;;;6328965;27;20296;-57
2021/12/27 15:23:00;;;;;;;49.83;28.87;;;-0.10;1.00;;;;;;6335516;27;20264;-57
2021/12/27 15:26:04;;;;;;;50.33;28.00;;;-0.40;1.00;;;;;;6341467;27;20295;-58
2021/12/27 15:29:07;;;;;;;51.37;29.00;;;-0.30;1.00;;;;;;6334835;27;20280;-58
2021/12/27 15:32:10;;;;;;;46.60;25.80;;;-0.40;1.00;;;;;;6329191;27;20300;-56
2021/12/27 15:35:14;;;;;;;48.10;27.33;;;-0.30;1.00;;;;;;6330037;27;20228;-58
2021/12/27 15:38:17;;;;;;;57.30;28.57;;;0.00;1.00;;;;;;6337675;27;20485;-58
2021/12/27 15:41:21;;;;;;;53.30;29.33;;;-0.50;1.00;;;;;;6340696;27;20315;-58
2021/12/27 15:44:24;;;;;;;57.80;29.23;;;-0.30;1.00;;;;;;6332568;27;20280;-58
2021/12/27 15:47:27;;;;;;;53.13;28.50;;;-0.30;1.00;;;;;;6337995;27;20307;-56
2021/12/27 15:50:30;;;;;;;51.33;28.57;;;-0.50;1.00;;;;;;6337191;27;20319;-57